Time;durP1;ratioP1;P1;durP2;ratioP2;P2;SDS_P1;SDS_P2;PMS_P1;PMS_P2;Temp;Humidity;BMP_temperature;BMP_pressure;BME280_temperature;BME280_humidity;BME280_pressure;Samples;Min_cycle;Max_cycle;Signal;HPM_P1;HPM_P2
2022/09/26 00:02:29;;;;;;;9.95;8.73;;;14.00;99.90;;;;;;4993868;28;20068;-56
2022/09/26 00:05:15;;;;;;;10.55;8.70;;;14.00;99.90;;;;;;4994205;28;20027;-54
2022/09/26 00:08:01;;;;;;;8.80;7.68;;;14.10;99.90;;;;;;4990721;28;20490;-56
2022/09/26 00:10:56;;;;;;;8.48;7.50;;;14.10;99.90;;;;;;4989685;28;20031;-52
2022/09/26 00:13:42;;;;;;;9.98;8.98;;;14.10;99.90;;;;;;4985383;28;20034;-50
2022/09/26 00:16:28;;;;;;;9.52;7.93;;;14.10;99.90;;;;;;4986298;28;20038;-51
2022/09/26 00:19:14;;;;;;;9.77;8.02;;;14.10;99.90;;;;;;4993648;28;20128;-52
2022/09/26 00:22:00;;;;;;;8.68;7.85;;;14.10;99.90;;;;;;4992495;28;20022;-51
2022/09/26 00:24:46;;;;;;;9.10;8.18;;;14.10;99.90;;;;;;4993512;28;20069;-53
2022/09/26 00:27:32;;;;;;;8.70;7.80;;;14.20;99.90;;;;;;4978810;28;20035;-52
2022/09/26 00:30:18;;;;;;;9.55;8.32;;;14.10;99.90;;;;;;4991435;28;20042;-52
2022/09/26 00:33:04;;;;;;;8.93;7.90;;;14.10;99.90;;;;;;4971333;28;20042;-54
2022/09/26 00:35:54;;;;;;;9.93;8.40;;;14.10;99.90;;;;;;4981110;28;20085;-56
2022/09/26 00:38:40;;;;;;;9.05;8.15;;;14.00;99.90;;;;;;4993110;28;20046;-54
2022/09/26 00:41:26;;;;;;;15.57;9.30;;;14.00;99.90;;;;;;4992517;28;20414;-53
2022/09/26 00:44:37;;;;;;;11.32;10.10;;;13.80;99.90;;;;;;4992889;28;20076;-52
2022/09/26 00:47:31;;;;;;;11.57;10.45;;;13.80;99.90;;;;;;4979676;28;20101;-52
2022/09/26 00:50:26;;;;;;;12.52;10.73;;;13.80;99.90;;;;;;4992781;28;20045;-52
2022/09/26 00:53:18;;;;;;;11.52;10.32;;;13.70;99.90;;;;;;4992292;28;20042;-54
2022/09/26 00:56:12;;;;;;;12.00;10.13;;;13.70;99.90;;;;;;4993374;28;20568;-52
2022/09/26 00:59:16;;;;;;;10.60;9.50;;;13.70;99.90;;;;;;4993349;28;20034;-50
2022/09/26 01:02:03;;;;;;;10.63;9.00;;;13.60;99.90;;;;;;4991924;28;20433;-53
2022/09/26 01:04:49;;;;;;;11.82;10.10;;;13.50;99.90;;;;;;4992995;28;20030;-52
2022/09/26 01:07:35;;;;;;;12.07;9.75;;;13.50;99.90;;;;;;4992533;28;20497;-54
2022/09/26 01:10:21;;;;;;;10.57;9.48;;;13.40;99.90;;;;;;4972426;28;20031;-54
2022/09/26 01:13:07;;;;;;;10.25;8.60;;;13.40;99.90;;;;;;4979555;28;20062;-53
2022/09/26 01:15:53;;;;;;;10.05;8.75;;;13.40;99.90;;;;;;4992229;28;20501;-52
2022/09/26 01:18:40;;;;;;;12.73;9.93;;;13.50;99.90;;;;;;4992344;28;20453;-53
2022/09/26 01:21:31;;;;;;;11.00;9.88;;;13.40;99.90;;;;;;4990679;28;20031;-52
2022/09/26 01:24:43;;;;;;;11.88;8.98;;;13.50;99.90;;;;;;4977858;28;20037;-53
2022/09/26 01:27:38;;;;;;;11.77;10.18;;;13.50;99.90;;;;;;4992600;28;20438;-51
2022/09/26 01:30:27;;;;;;;10.73;9.70;;;13.60;99.90;;;;;;4992245;28;20031;-54
2022/09/26 01:33:38;;;;;;;10.88;9.70;;;13.50;99.90;;;;;;4991683;28;20034;-52
2022/09/26 01:36:36;;;;;;;10.65;9.43;;;13.60;99.90;;;;;;4992437;28;20459;-55
2022/09/26 01:39:28;;;;;;;14.85;10.00;;;13.60;99.90;;;;;;4992482;28;20035;-53
2022/09/26 01:42:25;;;;;;;12.82;10.55;;;13.50;99.90;;;;;;4991562;28;20406;-55
2022/09/26 01:45:14;;;;;;;10.93;9.80;;;13.50;99.90;;;;;;4992505;28;20030;-55
2022/09/26 01:48:08;;;;;;;11.80;10.10;;;13.50;99.90;;;;;;4992297;28;20038;-56
2022/09/26 01:51:24;;;;;;;11.87;10.13;;;13.60;99.90;;;;;;4992010;28;20427;-53
2022/09/26 01:54:17;;;;;;;11.60;9.43;;;13.60;99.90;;;;;;4991677;28;20324;-55
2022/09/26 01:57:09;;;;;;;12.60;10.02;;;13.60;99.90;;;;;;4991660;28;20108;-56
2022/09/26 02:00:00;;;;;;;10.25;9.25;;;13.60;99.90;;;;;;4990591;28;20476;-53
2022/09/26 02:02:48;;;;;;;11.80;9.30;;;13.70;99.90;;;;;;4976403;28;20151;-51
2022/09/26 02:05:57;;;;;;;11.55;9.30;;;13.60;99.90;;;;;;5004363;28;20494;-55
2022/09/26 02:08:48;;;;;;;12.85;9.52;;;13.60;99.90;;;;;;5010956;28;20689;-51
2022/09/26 02:11:38;;;;;;;10.55;9.45;;;13.40;99.90;;;;;;5010384;28;20872;-55
2022/09/26 02:14:30;;;;;;;12.23;10.02;;;13.50;99.90;;;;;;4992473;28;20502;-54
2022/09/26 02:17:21;;;;;;;11.60;9.98;;;13.40;99.90;;;;;;4991750;28;20490;-54
2022/09/26 02:20:25;;;;;;;13.13;10.43;;;13.40;99.90;;;;;;4972201;28;20627;-58
2022/09/26 02:23:11;;;;;;;13.07;10.23;;;13.40;99.90;;;;;;4985795;28;20052;-55
2022/09/26 02:25:58;;;;;;;11.82;10.52;;;13.40;99.90;;;;;;4995097;28;20036;-50
2022/09/26 02:28:45;;;;;;;11.85;10.07;;;13.40;99.90;;;;;;4991365;28;20077;-55
2022/09/26 02:31:37;;;;;;;15.35;10.90;;;13.50;99.90;;;;;;4991093;28;20042;-54
2022/09/26 02:34:24;;;;;;;13.90;10.43;;;13.50;99.90;;;;;;4992007;28;20421;-52
2022/09/26 02:37:12;;;;;;;13.77;10.85;;;13.40;99.90;;;;;;4991908;28;20027;-53
2022/09/26 02:39:59;;;;;;;13.88;11.10;;;13.40;99.90;;;;;;4991571;28;20050;-55
2022/09/26 02:42:57;;;;;;;11.75;9.38;;;13.40;99.90;;;;;;4990709;28;20030;-53
2022/09/26 02:46:21;;;;;;;11.02;9.88;;;13.40;99.90;;;;;;4991538;28;20046;-51
2022/09/26 02:49:14;;;;;;;15.63;10.20;;;13.40;99.90;;;;;;4972359;28;20039;-52
2022/09/26 02:52:16;;;;;;;13.00;9.73;;;13.30;99.90;;;;;;4979654;28;20023;-52
2022/09/26 02:55:13;;;;;;;12.30;10.05;;;13.20;99.90;;;;;;4994622;28;20449;-53
2022/09/26 02:58:24;;;;;;;14.75;10.27;;;13.10;99.90;;;;;;4995390;28;20029;-52
2022/09/26 03:01:23;;;;;;;12.88;10.55;;;13.00;99.90;;;;;;4994518;28;20487;-53
2022/09/26 03:04:28;;;;;;;13.85;11.13;;;13.00;99.90;;;;;;4994943;28;20034;-52
2022/09/26 03:07:50;;;;;;;11.07;9.88;;;13.00;99.90;;;;;;4995159;28;20030;-52
2022/09/26 03:10:37;;;;;;;13.68;9.52;;;12.90;99.90;;;;;;4970299;28;20030;-55
2022/09/26 03:13:25;;;;;;;11.95;9.23;;;12.80;99.90;;;;;;4994551;28;20042;-53
2022/09/26 03:16:13;;;;;;;11.68;9.70;;;12.80;99.90;;;;;;4994543;28;20502;-50
2022/09/26 03:19:22;;;;;;;11.65;9.48;;;12.80;99.90;;;;;;4960713;28;20110;-54
2022/09/26 03:22:08;;;;;;;13.38;10.30;;;12.80;99.90;;;;;;4987690;28;20026;-51
2022/09/26 03:24:58;;;;;;;12.02;9.70;;;12.80;99.90;;;;;;4995170;28;20046;-52
2022/09/26 03:27:45;;;;;;;12.15;10.75;;;12.80;99.90;;;;;;4994258;28;20077;-53
2022/09/26 03:30:31;;;;;;;10.52;9.43;;;12.90;99.90;;;;;;4994011;28;20042;-55
2022/09/26 03:33:17;;;;;;;11.35;9.20;;;12.80;99.90;;;;;;4974598;28;20038;-55
2022/09/26 03:36:05;;;;;;;12.48;9.82;;;12.70;99.90;;;;;;4993396;28;20031;-55
2022/09/26 03:38:51;;;;;;;10.23;9.18;;;12.60;99.90;;;;;;4994413;28;20031;-53
2022/09/26 03:41:37;;;;;;;11.15;9.68;;;12.60;99.90;;;;;;4994019;28;20019;-54
2022/09/26 03:44:24;;;;;;;12.93;9.55;;;12.70;99.90;;;;;;4994378;28;20077;-53
2022/09/26 03:47:10;;;;;;;9.73;8.73;;;12.60;99.90;;;;;;4994889;28;20041;-54
2022/09/26 03:49:56;;;;;;;12.70;9.45;;;12.60;99.90;;;;;;4993623;28;20061;-53
2022/09/26 03:52:42;;;;;;;9.63;8.63;;;12.50;99.90;;;;;;4979697;28;20498;-51
2022/09/26 03:55:28;;;;;;;10.00;8.65;;;12.40;99.90;;;;;;4993775;28;20038;-53
2022/09/26 03:58:14;;;;;;;8.52;7.70;;;12.40;99.90;;;;;;4993890;28;20513;-55
2022/09/26 04:01:08;;;;;;;8.85;7.53;;;12.40;99.90;;;;;;4966711;28;20084;-56
2022/09/26 04:03:56;;;;;;;9.20;7.93;;;12.40;99.90;;;;;;4975332;28;20027;-54
2022/09/26 04:06:43;;;;;;;10.93;7.40;;;12.30;99.90;;;;;;4985723;28;20096;-51
2022/09/26 04:09:29;;;;;;;10.40;7.40;;;12.30;99.90;;;;;;4994786;28;20031;-51
2022/09/26 04:12:15;;;;;;;8.13;7.32;;;12.30;99.90;;;;;;4994168;28;20042;-54
2022/09/26 04:15:01;;;;;;;9.35;7.32;;;12.20;99.90;;;;;;4993110;28;20065;-50
2022/09/26 04:17:47;;;;;;;9.07;7.88;;;12.20;99.90;;;;;;4994075;28;20480;-53
2022/09/26 04:20:33;;;;;;;10.20;7.95;;;12.20;99.90;;;;;;4993312;28;20396;-55
2022/09/26 04:23:19;;;;;;;8.57;7.40;;;12.30;99.90;;;;;;4979310;28;20034;-55
2022/09/26 04:26:07;;;;;;;8.32;7.57;;;12.20;99.90;;;;;;4993156;28;20035;-50
2022/09/26 04:28:56;;;;;;;9.65;7.78;;;12.20;99.90;;;;;;4994215;28;20109;-54
2022/09/26 04:31:42;;;;;;;10.82;7.47;;;12.20;99.90;;;;;;4992798;28;20041;-53
2022/09/26 04:34:28;;;;;;;15.77;8.65;;;12.20;99.90;;;;;;4993705;28;20446;-53
2022/09/26 04:37:14;;;;;;;10.90;7.22;;;12.20;99.90;;;;;;4992287;28;20043;-53
2022/09/26 04:40:00;;;;;;;10.85;7.80;;;12.10;99.90;;;;;;4965498;28;20490;-54
2022/09/26 04:42:46;;;;;;;9.10;7.10;;;12.00;99.90;;;;;;4974378;28;20491;-51
2022/09/26 04:45:32;;;;;;;10.77;7.18;;;12.00;99.90;;;;;;4976965;28;20058;-57
2022/09/26 04:48:17;;;;;;;9.07;7.97;;;12.00;99.90;;;;;;4993262;28;20662;-59
2022/09/26 04:51:07;;;;;;;15.45;8.95;;;12.10;99.90;;;;;;4992736;28;20048;-50
2022/09/26 04:53:54;;;;;;;13.05;8.13;;;12.10;99.90;;;;;;4993027;28;20411;-52
2022/09/26 04:56:40;;;;;;;9.93;7.22;;;12.10;99.90;;;;;;4993343;28;20034;-52
2022/09/26 04:59:26;;;;;;;10.77;7.40;;;12.10;99.90;;;;;;4979555;28;20038;-52
2022/09/26 05:02:12;;;;;;;9.02;7.78;;;12.30;99.90;;;;;;4993896;28;20041;-54
2022/09/26 05:04:58;;;;;;;14.35;9.85;;;12.20;99.90;;;;;;4994256;28;20100;-51
2022/09/26 05:07:44;;;;;;;16.35;8.63;;;12.10;99.90;;;;;;4973835;28;20045;-52
2022/09/26 05:10:30;;;;;;;10.40;7.65;;;12.10;99.90;;;;;;4977463;28;20038;-50
2022/09/26 05:13:16;;;;;;;11.18;7.90;;;12.20;99.90;;;;;;4994277;28;20062;-51
2022/09/26 05:16:02;;;;;;;12.38;7.53;;;12.10;99.90;;;;;;4979138;28;20522;-55
2022/09/26 05:18:50;;;;;;;9.73;6.93;;;12.20;99.90;;;;;;4993876;28;20495;-51
2022/09/26 05:21:36;;;;;;;18.80;7.70;;;12.20;99.90;;;;;;4993365;28;20038;-53
2022/09/26 05:27:26;;;;;;;18.27;8.85;;;12.10;99.90;;;;;;4973224;28;20118;-52
2022/09/26 05:30:12;;;;;;;14.20;7.68;;;12.10;99.90;;;;;;4977414;28;20038;-55
2022/09/26 05:32:58;;;;;;;14.95;8.18;;;12.20;99.90;;;;;;4992017;28;20042;-55
2022/09/26 05:35:52;;;;;;;8.48;7.25;;;12.20;99.90;;;;;;4992269;28;20035;-54
2022/09/26 05:38:38;;;;;;;11.95;7.57;;;12.30;99.90;;;;;;4992210;28;20380;-56
2022/09/26 05:41:28;;;;;;;29.08;9.48;;;12.30;99.90;;;;;;4991000;28;20042;-50
2022/09/26 05:44:14;;;;;;;13.25;8.27;;;12.30;99.90;;;;;;4991192;28;20403;-53
2022/09/26 05:47:00;;;;;;;17.33;7.90;;;12.30;99.90;;;;;;4989686;28;20686;-56
2022/09/26 05:49:46;;;;;;;13.10;7.75;;;12.30;99.90;;;;;;4991483;28;20031;-54
2022/09/26 05:52:31;;;;;;;9.75;6.90;;;12.20;99.90;;;;;;4990554;28;20521;-55
2022/09/26 05:55:17;;;;;;;33.45;10.65;;;12.20;99.90;;;;;;4977623;28;20038;-55
2022/09/26 05:58:04;;;;;;;12.95;8.05;;;12.10;99.90;;;;;;4991850;28;20042;-55
2022/09/26 06:00:51;;;;;;;17.85;7.53;;;12.10;99.90;;;;;;4991780;28;20034;-57
2022/09/26 06:03:37;;;;;;;11.65;6.82;;;12.00;99.90;;;;;;4992027;28;20031;-54
2022/09/26 06:06:23;;;;;;;9.50;6.22;;;12.00;99.90;;;;;;4977580;28;20041;-52
2022/09/26 06:09:09;;;;;;;9.82;6.50;;;12.20;99.90;;;;;;4991412;28;20045;-53
2022/09/26 06:11:55;;;;;;;20.17;8.40;;;12.30;99.90;;;;;;4977733;28;20118;-55
2022/09/26 06:14:45;;;;;;;10.25;6.53;;;12.40;99.90;;;;;;4991378;28;20031;-52
2022/09/26 06:17:31;;;;;;;27.10;7.30;;;12.40;99.90;;;;;;4991491;28;20030;-55
2022/09/26 06:20:17;;;;;;;7.82;5.28;;;12.40;99.90;;;;;;4976421;28;20573;-55
2022/09/26 06:23:03;;;;;;;26.83;7.28;;;12.40;99.90;;;;;;4991679;28;20030;-52
2022/09/26 06:25:49;;;;;;;10.60;5.90;;;12.40;99.90;;;;;;4991826;28;20035;-52
2022/09/26 06:28:37;;;;;;;7.15;5.60;;;12.50;99.90;;;;;;4991288;28;20042;-53
2022/09/26 06:31:24;;;;;;;11.35;5.38;;;12.60;99.90;;;;;;4990288;28;20042;-54
2022/09/26 06:34:11;;;;;;;10.13;5.13;;;12.60;99.90;;;;;;4991728;28;20553;-55
2022/09/26 06:37:00;;;;;;;14.85;7.25;;;12.70;99.90;;;;;;4991563;28;20046;-53
2022/09/26 06:39:46;;;;;;;8.57;4.72;;;12.70;99.90;;;;;;4990703;28;20027;-56
2022/09/26 06:42:36;;;;;;;8.68;4.65;;;12.60;99.90;;;;;;4988204;28;20026;-51
2022/09/26 06:45:23;;;;;;;12.55;4.72;;;12.50;99.90;;;;;;4990602;28;20066;-49
2022/09/26 06:48:09;;;;;;;7.40;4.28;;;12.50;99.90;;;;;;4990552;28;20072;-55
2022/09/26 06:50:58;;;;;;;8.88;4.50;;;12.40;99.90;;;;;;4983646;28;20038;-54
2022/09/26 06:53:44;;;;;;;7.38;3.97;;;12.40;99.90;;;;;;4990547;28;20030;-51
2022/09/26 06:56:30;;;;;;;9.60;5.00;;;12.40;99.90;;;;;;4991089;28;20092;-55
2022/09/26 06:59:18;;;;;;;5.85;4.50;;;12.20;99.90;;;;;;4990551;28;20082;-55
2022/09/26 07:02:05;;;;;;;5.93;4.13;;;12.30;99.90;;;;;;4976104;28;20577;-56
2022/09/26 07:04:52;;;;;;;6.60;4.30;;;12.40;99.90;;;;;;4990780;28;20054;-57
2022/09/26 07:07:44;;;;;;;10.40;4.57;;;12.60;99.90;;;;;;4991223;28;20034;-56
2022/09/26 07:10:34;;;;;;;9.10;4.00;;;12.70;99.90;;;;;;4990426;28;20093;-57
2022/09/26 07:13:21;;;;;;;6.82;4.43;;;12.90;99.90;;;;;;4991024;28;20113;-52
2022/09/26 07:16:07;;;;;;;7.07;4.30;;;13.00;99.90;;;;;;4990386;28;20023;-54
2022/09/26 07:18:53;;;;;;;11.93;3.70;;;13.10;99.90;;;;;;4992183;28;20064;-56
2022/09/26 07:21:39;;;;;;;8.23;4.38;;;13.00;99.90;;;;;;4998161;28;20537;-49
2022/09/26 07:24:26;;;;;;;8.20;4.28;;;13.10;99.90;;;;;;4990649;28;20030;-54
2022/09/26 07:27:13;;;;;;;8.90;4.30;;;13.10;99.90;;;;;;4990881;28;20490;-53
2022/09/26 07:29:58;;;;;;;13.50;4.68;;;13.20;99.90;;;;;;4989131;28;20513;-55
2022/09/26 07:32:48;;;;;;;8.93;4.18;;;13.30;99.90;;;;;;4990545;28;20398;-51
2022/09/26 07:35:35;;;;;;;8.38;4.18;;;13.40;99.90;;;;;;4990773;28;20690;-55
2022/09/26 07:38:21;;;;;;;10.88;3.90;;;13.50;99.90;;;;;;4986738;28;20081;-52
2022/09/26 07:41:10;;;;;;;5.68;3.67;;;13.60;99.90;;;;;;4992400;28;20376;-54
2022/09/26 07:43:56;;;;;;;8.35;4.10;;;13.80;99.90;;;;;;4992615;28;20490;-56
2022/09/26 07:52:51;;;;;;;8.15;3.75;;;14.00;98.30;;;;;;4991858;28;20541;-55
2022/09/26 07:56:04;;;;;;;6.65;3.40;;;14.00;98.30;;;;;;4998749;28;20031;-51
2022/09/26 07:58:43;;;;;;;12.68;3.40;;;14.00;98.10;;;;;;4990042;28;20114;-50
2022/09/26 08:01:31;;;;;;;6.05;3.00;;;14.00;98.30;;;;;;4992027;28;20038;-51
2022/09/26 08:04:23;;;;;;;8.45;3.17;;;14.10;98.10;;;;;;4992431;28;20027;-56
2022/09/26 08:07:11;;;;;;;8.27;3.40;;;14.30;97.70;;;;;;4983710;28;20053;-53
2022/09/26 08:09:57;;;;;;;7.40;3.45;;;14.30;97.70;;;;;;4992722;28;20118;-52
2022/09/26 08:12:44;;;;;;;5.32;2.83;;;14.20;97.50;;;;;;4999003;28;20124;-53
2022/09/26 08:15:30;;;;;;;5.97;3.20;;;14.20;96.90;;;;;;4949932;28;20045;-54
2022/09/26 08:18:19;;;;;;;5.07;2.50;;;14.20;97.30;;;;;;4994124;28;20034;-52
2022/09/26 08:21:05;;;;;;;7.00;3.25;;;14.30;97.10;;;;;;4995236;28;20073;-46
2022/09/26 08:23:52;;;;;;;9.95;3.58;;;14.30;96.70;;;;;;4990884;28;20029;-48
2022/09/26 08:26:39;;;;;;;5.72;3.30;;;14.30;96.70;;;;;;4991389;28;20034;-51
2022/09/26 08:29:25;;;;;;;6.60;3.72;;;14.30;96.80;;;;;;4992800;28;20030;-46
2022/09/26 08:32:11;;;;;;;8.35;3.80;;;14.40;96.70;;;;;;4992679;28;20034;-48
2022/09/26 08:34:57;;;;;;;6.70;3.40;;;14.40;96.90;;;;;;4988518;28;20023;-48
2022/09/26 08:37:45;;;;;;;6.90;3.97;;;14.60;96.80;;;;;;4999566;28;20662;-49
2022/09/26 08:40:44;;;;;;;8.00;4.05;;;14.60;96.40;;;;;;5010047;22;20105;-49
2022/09/26 08:44:19;;;;;;;5.45;3.75;;;14.80;96.40;;;;;;5030771;28;20029;-52
2022/09/26 08:47:32;;;;;;;14.15;5.32;;;14.90;96.50;;;;;;5028066;28;20025;-51
2022/09/26 08:50:40;;;;;;;7.07;3.97;;;14.90;96.00;;;;;;5029279;28;20037;-52
2022/09/26 08:53:36;;;;;;;13.07;5.32;;;15.20;96.20;;;;;;5027484;28;20025;-54
2022/09/26 08:56:30;;;;;;;8.98;5.22;;;15.20;95.50;;;;;;5026160;28;20563;-53
2022/09/26 08:59:33;;;;;;;14.80;6.32;;;15.40;95.20;;;;;;5028357;28;20552;-55
2022/09/26 09:03:07;;;;;;;21.75;6.68;;;15.40;95.30;;;;;;5028760;28;20030;-55
2022/09/26 09:06:10;;;;;;;23.75;6.18;;;15.50;94.70;;;;;;5028623;28;20025;-53
2022/09/26 09:08:56;;;;;;;9.68;5.15;;;15.50;94.70;;;;;;5028788;28;20559;-54
2022/09/26 09:11:52;;;;;;;12.68;5.65;;;15.60;94.30;;;;;;5027262;28;20037;-50
2022/09/26 09:14:37;;;;;;;;;;;15.60;93.70;;;;;;5031795;28;20529;-52
2022/09/26 09:17:51;;;;;;;10.52;5.45;;;15.50;93.60;;;;;;5031315;28;20319;-52
2022/09/26 09:20:58;;;;;;;13.23;5.53;;;15.50;94.00;;;;;;5030719;28;20061;-56
2022/09/26 09:24:15;;;;;;;11.70;5.10;;;15.50;94.00;;;;;;5030096;28;20037;-55
2022/09/26 09:27:34;;;;;;;8.50;5.28;;;15.60;93.40;;;;;;5011848;28;20096;-56
2022/09/26 09:30:21;;;;;;;9.13;4.10;;;15.70;93.30;;;;;;5021985;28;20026;-52
2022/09/26 09:33:28;;;;;;;8.77;4.55;;;15.90;93.50;;;;;;5029468;28;20110;-51
2022/09/26 09:36:24;;;;;;;14.50;4.32;;;16.10;93.40;;;;;;5029779;28;20029;-53
2022/09/26 09:39:20;;;;;;;6.10;3.70;;;16.20;92.40;;;;;;4998812;28;20060;-53
2022/09/26 09:42:11;;;;;;;11.40;4.80;;;16.20;92.20;;;;;;5030167;28;20548;-50
2022/09/26 09:45:08;;;;;;;9.25;3.35;;;16.00;92.20;;;;;;5031292;28;20034;-54
2022/09/26 09:47:57;;;;;;;13.52;4.97;;;16.20;92.50;;;;;;5012234;28;20083;-52
2022/09/26 09:51:01;;;;;;;8.32;3.95;;;16.20;91.90;;;;;;5035023;28;20084;-52
2022/09/26 09:54:09;;;;;;;8.32;3.70;;;16.00;91.90;;;;;;5027216;28;20112;-54
2022/09/26 09:57:47;;;;;;;7.90;3.67;;;16.10;91.90;;;;;;5028077;28;20032;-48
2022/09/26 10:00:43;;;;;;;6.90;3.40;;;16.00;91.80;;;;;;5003476;28;20029;-52
2022/09/26 10:03:54;;;;;;;;;;;15.90;92.00;;;;;;5025154;28;20028;-50
2022/09/26 10:06:40;;;;;;;5.97;2.90;;;15.70;91.90;;;;;;5029597;28;19908;-51
2022/09/26 10:09:30;;;;;;;5.13;2.63;;;15.80;92.40;;;;;;5030517;28;20029;-53
2022/09/26 10:12:19;;;;;;;7.13;2.90;;;15.90;92.50;;;;;;5028313;28;20037;-54
2022/09/26 10:15:18;;;;;;;5.45;2.80;;;16.00;92.20;;;;;;5028468;28;20059;-53
2022/09/26 10:18:17;;;;;;;4.57;2.97;;;15.90;92.10;;;;;;5029592;28;20770;-52
2022/09/26 10:21:10;;;;;;;7.22;3.03;;;15.90;91.90;;;;;;5025727;28;20489;-51
2022/09/26 10:23:57;;;;;;;5.32;2.92;;;16.00;92.20;;;;;;5015166;28;20095;-53
2022/09/26 10:26:44;;;;;;;5.47;3.10;;;16.20;92.00;;;;;;5030663;28;20037;-52
2022/09/26 10:29:33;;;;;;;5.32;2.90;;;16.30;91.80;;;;;;5024222;28;20480;-51
2022/09/26 10:32:19;;;;;;;4.20;2.70;;;16.30;91.20;;;;;;5023347;28;20378;-49
2022/09/26 10:35:23;;;;;;;9.73;2.70;;;16.00;91.50;;;;;;5035063;28;20041;-49
2022/09/26 10:38:26;;;;;;;6.78;3.28;;;16.00;91.60;;;;;;5025703;28;20028;-51
2022/09/26 10:41:23;;;;;;;5.03;2.30;;;16.10;91.70;;;;;;4995269;28;20037;-50
2022/09/26 10:44:41;;;;;;;9.75;2.63;;;16.20;91.80;;;;;;5010883;28;20034;-50
2022/09/26 10:47:29;;;;;;;6.07;2.42;;;16.30;91.60;;;;;;5009479;28;20029;-53
2022/09/26 10:50:26;;;;;;;6.10;2.72;;;16.40;91.60;;;;;;5028543;28;20034;-51
2022/09/26 10:53:14;;;;;;;4.85;2.70;;;16.50;91.20;;;;;;5029907;28;20108;-49
2022/09/26 10:56:10;;;;;;;5.15;2.85;;;16.20;91.50;;;;;;5011990;28;20507;-52
2022/09/26 10:59:08;;;;;;;4.60;2.78;;;16.30;91.40;;;;;;5013730;28;20389;-54
2022/09/26 11:01:57;;;;;;;5.45;2.80;;;16.40;91.70;;;;;;5029940;28;20026;-49
2022/09/26 11:07:51;;;;;;;7.10;2.50;;;16.20;91.20;;;;;;5030677;28;20040;-49
2022/09/26 11:10:40;;;;;;;5.13;3.40;;;16.10;91.60;;;;;;5030042;28;20048;-50
2022/09/26 11:13:38;;;;;;;5.97;2.60;;;16.30;91.80;;;;;;5029523;28;20037;-50
2022/09/26 11:16:24;;;;;;;9.25;3.10;;;16.60;91.60;;;;;;5026751;28;20029;-53
2022/09/26 11:19:25;;;;;;;4.55;2.95;;;16.70;91.10;;;;;;5031764;28;20033;-54
2022/09/26 11:22:24;;;;;;;5.15;2.80;;;16.60;90.90;;;;;;5033552;28;20021;-52
2022/09/26 11:25:30;;;;;;;14.50;3.03;;;16.50;91.00;;;;;;5030819;28;20060;-50
2022/09/26 11:28:23;;;;;;;6.82;2.97;;;16.60;90.70;;;;;;5028996;28;20029;-53
2022/09/26 11:31:34;;;;;;;4.10;2.70;;;16.80;89.30;;;;;;5026673;28;20033;-53
2022/09/26 11:34:26;;;;;;;4.75;2.90;;;16.70;89.40;;;;;;5018245;28;20026;-51
2022/09/26 11:37:42;;;;;;;3.63;2.75;;;16.70;89.20;;;;;;5034603;28;20040;-51
2022/09/26 11:40:45;;;;;;;;;;;16.90;89.20;;;;;;5033355;28;20041;-49
2022/09/26 11:44:03;;;;;;;4.60;2.60;;;16.80;86.60;;;;;;5032601;28;19917;-53
2022/09/26 11:47:11;;;;;;;4.50;2.80;;;16.60;83.40;;;;;;5014305;28;20167;-51
2022/09/26 11:50:24;;;;;;;3.85;2.90;;;16.60;85.50;;;;;;5022518;28;20030;-52
2022/09/26 11:53:31;;;;;;;3.78;2.30;;;16.70;86.60;;;;;;5023632;28;20030;-54
2022/09/26 11:56:25;;;;;;;3.60;2.45;;;16.90;86.90;;;;;;5026130;28;20040;-65
2022/09/26 11:59:36;;;;;;;4.22;2.55;;;16.80;86.50;;;;;;5033490;28;20030;-51
2022/09/26 12:02:34;;;;;;;8.50;2.85;;;16.70;87.40;;;;;;5025878;28;20038;-55
2022/09/26 12:05:30;;;;;;;4.95;3.00;;;16.60;88.20;;;;;;5032988;28;20027;-54
2022/09/26 12:08:56;;;;;;;5.13;3.20;;;16.60;88.80;;;;;;5017214;28;20033;-53
2022/09/26 12:11:58;;;;;;;11.32;3.97;;;16.50;89.50;;;;;;5021486;28;20037;-56
2022/09/26 12:15:26;;;;;;;7.00;3.20;;;16.60;89.90;;;;;;5032669;28;20175;-54
2022/09/26 12:18:23;;;;;;;11.20;3.63;;;16.50;89.70;;;;;;5003565;28;20026;-52
2022/09/26 12:21:28;;;;;;;7.40;3.30;;;16.60;88.50;;;;;;5014271;28;20092;-49
2022/09/26 12:24:30;;;;;;;4.97;2.80;;;16.70;88.50;;;;;;5031299;28;20026;-55
2022/09/26 12:27:38;;;;;;;6.80;3.20;;;16.60;85.90;;;;;;5020531;28;20030;-53
2022/09/26 12:30:48;;;;;;;9.95;3.45;;;16.60;85.90;;;;;;5040784;28;20025;-49
2022/09/26 12:33:49;;;;;;;5.10;3.25;;;16.40;85.40;;;;;;5018490;28;20477;-51
2022/09/26 12:37:00;;;;;;;14.68;3.28;;;16.30;85.90;;;;;;5020185;28;20033;-56
2022/09/26 12:39:57;;;;;;;5.72;2.78;;;16.30;86.00;;;;;;5032268;28;20088;-56
2022/09/26 12:43:12;;;;;;;4.13;2.83;;;16.40;85.00;;;;;;5019658;28;20631;-52
2022/09/26 12:46:24;;;;;;;4.38;2.70;;;16.30;85.80;;;;;;5025045;28;20034;-52
2022/09/26 12:49:28;;;;;;;4.30;2.70;;;16.30;85.90;;;;;;5023407;28;20091;-51
2022/09/26 12:52:35;;;;;;;5.45;2.85;;;16.40;86.50;;;;;;5028626;28;20079;-54
2022/09/26 12:55:52;;;;;;;5.68;3.10;;;16.50;86.40;;;;;;5032066;28;20036;-51
2022/09/26 12:59:16;;;;;;;4.28;2.55;;;16.50;85.70;;;;;;5012445;28;20030;-55
2022/09/26 13:02:31;;;;;;;4.80;2.85;;;16.80;85.10;;;;;;4990805;28;20092;-53
2022/09/26 13:05:49;;;;;;;3.57;2.53;;;16.70;85.00;;;;;;5012753;28;20498;-49
2022/09/26 13:08:46;;;;;;;3.88;2.60;;;16.60;85.10;;;;;;5002663;28;20644;-52
2022/09/26 13:11:35;;;;;;;5.15;2.53;;;16.40;85.00;;;;;;5025783;28;20036;-53
2022/09/26 13:14:45;;;;;;;3.85;2.55;;;16.40;84.50;;;;;;5032275;28;20056;-53
2022/09/26 13:17:44;;;;;;;6.85;2.80;;;16.30;85.80;;;;;;5023202;28;20033;-51
2022/09/26 13:20:43;;;;;;;3.97;2.85;;;16.30;85.20;;;;;;5030180;28;20036;-56
2022/09/26 13:23:52;;;;;;;5.07;2.45;;;16.40;85.50;;;;;;5029644;28;20028;-51
2022/09/26 13:26:43;;;;;;;3.97;2.45;;;16.50;85.90;;;;;;5012602;28;20030;-57
2022/09/26 13:29:35;;;;;;;8.50;3.33;;;16.80;85.40;;;;;;5029181;28;20108;-55
2022/09/26 13:32:55;;;;;;;8.40;2.67;;;16.90;84.60;;;;;;5027326;28;20533;-52
2022/09/26 13:35:45;;;;;;;6.43;3.38;;;16.70;85.30;;;;;;5030838;28;20152;-52
2022/09/26 13:38:32;;;;;;;8.70;2.97;;;16.70;85.90;;;;;;5017104;28;20033;-54
2022/09/26 13:41:29;;;;;;;6.38;3.53;;;16.60;85.00;;;;;;5029287;28;20605;-54
2022/09/26 13:44:25;;;;;;;6.00;2.55;;;16.50;85.90;;;;;;5033872;28;20041;-56
2022/09/26 13:47:21;;;;;;;4.55;2.72;;;16.50;85.60;;;;;;5029769;28;20094;-58
2022/09/26 13:50:31;;;;;;;6.25;2.72;;;16.60;85.90;;;;;;5032267;28;20056;-59
2022/09/26 13:53:27;;;;;;;4.38;2.55;;;16.80;85.30;;;;;;5027072;28;20040;-55
2022/09/26 13:56:34;;;;;;;7.78;2.75;;;17.30;84.30;;;;;;5027387;28;20083;-55
2022/09/26 13:59:22;;;;;;;6.88;2.75;;;17.70;83.70;;;;;;5029223;28;20037;-56
2022/09/26 14:02:17;;;;;;;5.50;2.88;;;18.00;81.30;;;;;;5027528;28;20048;-57
2022/09/26 14:05:18;;;;;;;;;;;17.90;80.80;;;;;;5030828;28;20025;-53
2022/09/26 14:11:49;;;;;;;5.53;2.63;;;17.20;83.00;;;;;;5024630;28;20399;-53
2022/09/26 14:14:45;;;;;;;4.18;2.70;;;17.50;82.40;;;;;;5016953;28;20025;-50
2022/09/26 14:17:42;;;;;;;;;;;17.80;81.60;;;;;;5032114;28;20596;-53
2022/09/26 14:20:37;;;;;;;3.35;2.60;;;17.80;81.40;;;;;;5031520;28;19945;-54
2022/09/26 14:23:34;;;;;;;6.03;3.38;;;18.10;80.10;;;;;;5022795;28;20025;-54
2022/09/26 14:26:26;;;;;;;3.80;2.60;;;18.30;80.10;;;;;;5026627;28;20117;-57
2022/09/26 14:29:33;;;;;;;6.65;2.63;;;18.30;79.70;;;;;;5011037;28;20061;-52
2022/09/26 14:32:41;;;;;;;2.85;2.53;;;18.50;79.60;;;;;;5029466;28;20092;-52
2022/09/26 14:35:33;;;;;;;3.38;2.33;;;18.30;79.80;;;;;;5029801;28;20037;-55
2022/09/26 14:38:20;;;;;;;9.68;7.30;;;18.50;79.70;;;;;;5022968;28;20050;-52
2022/09/26 14:41:17;;;;;;;6.65;2.78;;;18.70;79.80;;;;;;5010932;28;20026;-53
2022/09/26 14:44:15;;;;;;;6.78;2.80;;;18.60;77.90;;;;;;5012261;28;20062;-55
2022/09/26 14:47:07;;;;;;;5.68;2.42;;;18.20;78.80;;;;;;5011842;28;20098;-53
2022/09/26 14:50:04;;;;;;;5.82;2.70;;;18.50;79.50;;;;;;5014636;28;20068;-52
2022/09/26 14:52:57;;;;;;;10.25;2.90;;;18.70;78.80;;;;;;5032662;28;20041;-52
2022/09/26 14:55:58;;;;;;;6.57;2.90;;;19.00;78.50;;;;;;5017702;28;20699;-56
2022/09/26 14:58:48;;;;;;;5.53;2.63;;;19.30;77.40;;;;;;5014995;28;20026;-52
2022/09/26 15:01:37;;;;;;;3.67;2.50;;;18.70;78.80;;;;;;5021955;28;20032;-54
2022/09/26 15:04:26;;;;;;;5.80;2.60;;;18.20;79.40;;;;;;5033535;28;20390;-55
2022/09/26 15:07:19;;;;;;;5.82;2.40;;;17.90;81.00;;;;;;5018563;28;20096;-54
2022/09/26 15:10:20;;;;;;;6.07;2.40;;;17.90;80.80;;;;;;5016229;28;20498;-51
2022/09/26 15:13:06;;;;;;;4.60;2.50;;;17.70;81.20;;;;;;5015260;28;20120;-55
2022/09/26 15:16:08;;;;;;;4.53;2.42;;;17.50;81.20;;;;;;5015033;28;20033;-53
2022/09/26 15:19:00;;;;;;;6.65;3.30;;;17.30;82.30;;;;;;5014846;28;20037;-54